createdAt,value
2018-10-19T00:12:00.184Z,14.35
2018-10-19T00:12:53.459Z,14.35
2018-10-19T00:13:45.422Z,14.41
2018-10-19T00:14:37.815Z,14.36
2018-10-19T00:15:30.035Z,14.23
2018-10-19T00:26:59.840Z,13.62
2018-10-19T00:27:51.845Z,13.61
2018-10-19T00:28:43.922Z,13.61
2018-10-19T00:29:36.382Z,13.48
2018-10-19T00:30:29.197Z,13.55
2018-10-19T00:31:21.153Z,13.59
2018-10-19T00:32:13.438Z,13.59
2018-10-19T00:33:05.840Z,13.55
2018-10-19T00:33:57.918Z,13.57
2018-10-19T00:34:50.413Z,13.46
2018-10-19T00:35:42.986Z,13.54
2018-10-19T00:36:35.424Z,13.5
2018-10-19T00:37:27.675Z,13.5
2018-10-19T00:38:19.932Z,13.51
2018-10-19T00:39:12.612Z,13.53
2018-10-19T00:40:04.947Z,13.48
2018-10-19T00:40:57.460Z,13.47
2018-10-19T00:41:49.987Z,13.51
2018-10-19T00:42:42.537Z,13.32
2018-10-19T00:43:34.855Z,13.31
2018-10-19T00:44:27.557Z,13.32
2018-10-19T00:45:19.905Z,13.36
2018-10-19T00:46:11.821Z,13.41
2018-10-19T00:47:04.152Z,13.39
2018-10-19T00:47:56.455Z,13.35
2018-10-19T00:48:48.410Z,13.32
2018-10-19T00:49:40.529Z,13.36
2018-10-19T00:50:32.842Z,13.46
2018-10-19T00:51:24.980Z,13.44
2018-10-19T00:52:17.561Z,13.44
2018-10-19T00:53:09.906Z,13.44
2018-10-19T00:54:02.520Z,13.39
2018-10-19T00:54:55.427Z,13.47
2018-10-19T00:55:47.841Z,13.46
2018-10-19T00:56:40.017Z,13.35
2018-10-19T00:57:32.374Z,13.44
2018-10-19T00:58:25.200Z,13.38
2018-10-19T00:59:17.438Z,13.46
2018-10-19T01:00:09.817Z,13.39
2018-10-19T01:01:03.046Z,13.44
2018-10-19T01:01:55.398Z,13.47
2018-10-19T01:02:47.492Z,13.48
2018-10-19T01:03:39.898Z,13.44
2018-10-19T01:04:32.179Z,13.41
2018-10-19T01:05:24.450Z,13.47
2018-10-19T01:06:17.922Z,13.48
2018-10-19T01:07:10.082Z,13.32
2018-10-19T01:08:03.027Z,13.35
2018-10-19T01:08:55.517Z,13.32
2018-10-19T01:09:48.090Z,13.21
2018-10-19T01:10:41.461Z,13.31
2018-10-19T01:11:33.782Z,13.32
2018-10-19T01:12:26.437Z,13.24
2018-10-19T01:13:18.851Z,13.25
2018-10-19T01:14:10.677Z,13.27
2018-10-19T01:15:02.942Z,13.25
2018-10-19T01:15:54.927Z,13.24
2018-10-19T01:16:47.182Z,13.22
2018-10-19T01:17:39.574Z,13.25
2018-10-19T01:18:32.057Z,13.24
2018-10-19T01:19:24.244Z,13.21
2018-10-19T01:20:16.472Z,13.31
2018-10-19T01:21:08.671Z,13.27
2018-10-19T01:22:01.444Z,13.24
2018-10-19T01:22:53.798Z,13.32
2018-10-19T01:23:46.435Z,13.24
2018-10-19T01:24:38.980Z,13.29
2018-10-19T01:25:30.996Z,13.39
2018-10-19T01:26:23.966Z,13.31
2018-10-19T01:27:18.369Z,13.38
2018-10-19T01:28:11.152Z,13.31
2018-10-19T01:29:02.863Z,13.38
2018-10-19T01:29:56.003Z,13.32
2018-10-19T01:30:48.312Z,13.35
2018-10-19T01:31:41.364Z,13.38
2018-10-19T01:32:35.658Z,13.32
2018-10-19T01:33:28.434Z,13.41
2018-10-19T01:34:22.045Z,13.51
2018-10-19T01:35:15.532Z,13.54
2018-10-19T01:36:09.760Z,13.47
2018-10-19T01:37:01.790Z,13.48
2018-10-19T01:37:55.378Z,13.48
2018-10-19T01:38:47.482Z,13.46
2018-10-19T01:39:40.889Z,13.5
2018-10-19T01:40:36.677Z,13.31
2018-10-19T01:41:28.488Z,13.38
2018-10-19T01:42:21.264Z,13.29
2018-10-19T01:43:14.714Z,13.36
2018-10-19T01:44:07.208Z,13.38
2018-10-19T01:44:59.425Z,13.25
2018-10-19T01:45:53.694Z,13.24
2018-10-19T01:46:47.065Z,13.25
2018-10-19T01:47:39.699Z,13.17
2018-10-19T01:48:31.807Z,13.12
2018-10-19T01:49:24.308Z,13.06
2018-10-19T01:50:16.521Z,12.98
2018-10-19T01:51:16.030Z,12.96
2018-10-19T01:52:14.275Z,12.81
2018-10-19T01:53:15.981Z,12.81
2018-10-19T01:54:16.173Z,12.77
2018-10-19T01:55:14.829Z,12.76
2018-10-19T01:57:15.665Z,12.61
2018-10-19T01:58:14.495Z,12.61
2018-10-19T01:59:11.598Z,12.55
2018-10-19T02:00:11.342Z,12.49
2018-10-19T02:01:07.814Z,12.49
2018-10-19T02:02:03.809Z,12.44
2018-10-19T02:03:00.190Z,12.46
2018-10-19T02:03:59.501Z,12.37
2018-10-19T02:04:58.682Z,12.36
2018-10-19T02:06:01.156Z,12.33
2018-10-19T02:06:59.144Z,12.29
2018-10-19T02:07:57.408Z,12.25
2018-10-19T02:08:55.207Z,12.26
2018-10-19T02:09:52.820Z,12.15
2018-10-19T02:10:55.272Z,12.12
2018-10-19T02:11:54.034Z,12.07
2018-10-19T02:12:54.261Z,12.01
2018-10-19T02:13:54.622Z,12.01
2018-10-19T02:14:53.156Z,12.07
2018-10-19T02:15:52.575Z,12.12
2018-10-19T02:16:51.630Z,12.12
2018-10-19T02:17:51.041Z,12.08
2018-10-19T02:18:56.894Z,12.08
2018-10-19T02:20:18.443Z,11.97
2018-10-19T02:21:51.901Z,11.93
2018-10-19T02:22:45.441Z,11.97
2018-10-19T02:23:37.628Z,12.04
2018-10-19T02:24:30.196Z,11.96
2018-10-19T02:25:22.849Z,11.93
2018-10-19T02:26:15.310Z,11.9
2018-10-19T02:27:07.318Z,11.79
2018-10-19T02:27:59.593Z,11.87
2018-10-19T02:28:51.666Z,11.93
2018-10-19T02:29:44.159Z,11.96
2018-10-19T02:30:36.150Z,11.77
2018-10-19T02:31:28.494Z,11.75
2018-10-19T02:32:20.450Z,11.74
2018-10-19T02:33:13.075Z,11.69
2018-10-19T02:34:05.160Z,11.7
2018-10-19T02:34:57.799Z,11.64
2018-10-19T02:35:49.977Z,11.59
2018-10-19T02:36:42.131Z,11.56
2018-10-19T02:37:34.377Z,11.54
2018-10-19T02:38:26.622Z,11.56
2018-10-19T02:39:19.081Z,11.51
2018-10-19T02:40:11.236Z,11.49
2018-10-19T02:41:03.821Z,11.49
2018-10-19T02:41:55.902Z,11.46
2018-10-19T02:42:48.193Z,11.42
2018-10-19T02:43:40.131Z,11.31
2018-10-19T02:44:32.251Z,11.31
2018-10-19T02:45:24.298Z,11.35
2018-10-19T02:46:16.628Z,11.36
2018-10-19T02:47:08.735Z,11.35
2018-10-19T02:48:00.855Z,11.38
2018-10-19T02:48:52.889Z,11.28
2018-10-19T02:49:45.536Z,11.31
2018-10-19T02:50:37.806Z,11.27
2018-10-19T02:51:30.299Z,11.23
2018-10-19T02:52:22.411Z,11.24
2018-10-19T02:53:14.549Z,11.23
2018-10-19T02:54:06.642Z,11.27
2018-10-19T02:54:59.069Z,11.2
2018-10-19T02:55:51.225Z,11.24
2018-10-19T02:56:43.568Z,11.28
2018-10-19T02:57:36.181Z,11.23
2018-10-19T02:58:29.328Z,11.26
2018-10-19T02:59:21.618Z,11.28
2018-10-19T03:00:13.953Z,11.19
2018-10-19T03:01:06.842Z,11.2
2018-10-19T03:01:59.130Z,11.16
2018-10-19T03:02:51.630Z,11.2
2018-10-19T03:03:44.087Z,11.09
2018-10-19T03:04:36.282Z,11.12
2018-10-19T03:05:28.761Z,11.19
2018-10-19T03:06:20.707Z,11.17
2018-10-19T03:07:13.174Z,11.12
2018-10-19T03:08:06.227Z,11.13
2018-10-19T03:08:59.003Z,11.13
2018-10-19T03:09:51.283Z,11.09
2018-10-19T03:10:43.113Z,11.11
2018-10-19T03:11:35.391Z,11.19
2018-10-19T03:12:27.611Z,11.19
2018-10-19T03:13:19.828Z,11.13
2018-10-19T03:14:12.151Z,11.17
2018-10-19T03:15:04.493Z,11.16
2018-10-19T03:15:56.580Z,11.16
2018-10-19T03:16:48.623Z,11.2
2018-10-19T03:17:41.538Z,11.12
2018-10-19T03:18:33.991Z,11.17
2018-10-19T03:19:26.166Z,11.17
2018-10-19T03:20:18.356Z,11.16
2018-10-19T03:21:10.968Z,11.17
2018-10-19T03:22:03.426Z,11.17
2018-10-19T03:22:55.648Z,11.16
2018-10-19T03:23:47.728Z,11.09
2018-10-19T03:24:39.968Z,11.16
2018-10-19T03:25:32.043Z,11.2
2018-10-19T03:26:24.960Z,11.11
2018-10-19T03:27:17.410Z,11.08
2018-10-19T03:28:09.075Z,11.09
2018-10-19T03:29:01.229Z,11.12
2018-10-19T03:29:54.250Z,11.12
2018-10-19T03:30:49.336Z,11.13
2018-10-19T03:31:44.902Z,11.05
2018-10-19T03:32:37.635Z,11.06
2018-10-19T03:36:19.599Z,10.84
2018-10-19T03:37:31.362Z,11.08
2018-10-19T03:38:11.727Z,10.99
2018-10-19T03:38:52.176Z,11.09
2018-10-19T03:39:32.552Z,10.99
2018-10-19T03:41:14.409Z,10.95
2018-10-19T03:42:06.051Z,10.98
2018-10-19T03:42:58.457Z,10.84
2018-10-19T03:43:50.311Z,10.91
2018-10-19T03:44:42.508Z,10.91
2018-10-19T03:45:34.539Z,10.88
2018-10-19T03:46:27.055Z,10.73
2018-10-19T03:47:19.154Z,10.7
2018-10-19T03:48:11.611Z,10.76
2018-10-19T03:49:04.233Z,10.75
2018-10-19T03:49:56.086Z,10.69
2018-10-19T03:52:21.455Z,10.66
2018-10-19T03:53:13.928Z,10.52
2018-10-19T03:54:06.467Z,10.46
2018-10-19T03:54:59.045Z,10.49
2018-10-19T03:55:51.579Z,10.39
2018-10-19T03:56:44.005Z,10.39
2018-10-19T03:57:36.433Z,10.34
2018-10-19T03:58:28.729Z,10.2
2018-10-19T03:59:28.395Z,10.24
2018-10-19T04:00:20.869Z,10.22
2018-10-19T04:01:13.365Z,10.25
2018-10-19T04:02:05.890Z,10.17
2018-10-19T04:02:58.302Z,10.18
2018-10-19T04:03:50.705Z,10.09
2018-10-19T04:04:43.587Z,10.1
2018-10-19T04:05:37.758Z,10.13
2018-10-19T04:06:30.679Z,10.17
2018-10-19T04:07:22.887Z,10.16
2018-10-19T04:08:18.978Z,10.13
2018-10-19T04:09:13.375Z,10.13
2018-10-19T04:10:06.124Z,10.09
2018-10-19T04:10:59.101Z,10.04
2018-10-19T04:11:51.568Z,9.96
2018-10-19T04:12:43.800Z,9.98
2018-10-19T04:13:35.982Z,9.93
2018-10-19T04:14:28.406Z,9.98
2018-10-19T04:15:21.027Z,9.95
2018-10-19T04:16:13.507Z,9.99
2018-10-19T04:17:05.955Z,9.95
2018-10-19T04:17:58.312Z,9.92
2018-10-19T04:18:51.853Z,9.96
2018-10-19T04:19:44.390Z,10.02
2018-10-19T04:20:36.748Z,10.02
2018-10-19T04:21:28.890Z,9.99
2018-10-19T04:22:21.469Z,9.93
2018-10-19T04:23:13.433Z,9.88
2018-10-19T04:24:05.951Z,9.92
2018-10-19T04:24:58.172Z,9.89
2018-10-19T04:25:50.170Z,9.89
2018-10-19T04:26:42.626Z,9.75
2018-10-19T04:27:34.956Z,9.78
2018-10-19T04:28:26.722Z,9.68
2018-10-19T05:06:10.772Z,9.1
2018-10-19T05:07:03.264Z,9.1
2018-10-19T05:07:57.332Z,8.91
2018-10-19T05:09:59.402Z,9.23
2018-10-19T05:10:51.927Z,9.2
2018-10-19T05:11:44.261Z,9.23
2018-10-19T05:12:38.333Z,9.3
2018-10-19T05:13:30.415Z,9.38
2018-10-19T05:14:22.362Z,9.41
2018-10-19T05:15:15.449Z,9.4
2018-10-19T05:16:21.096Z,9.38
2018-10-19T05:17:13.737Z,9.32
2018-10-19T05:18:06.300Z,9.37
2018-10-19T05:18:58.372Z,9.48
2018-10-19T05:19:52.106Z,9.49
2018-10-19T05:20:44.229Z,9.65
2018-10-19T05:21:37.306Z,9.62
2018-10-19T05:22:34.876Z,9.62
2018-10-19T05:23:37.328Z,9.67
2018-10-19T05:24:40.062Z,9.6
2018-10-19T05:25:40.016Z,9.58
2018-10-19T05:26:51.003Z,9.65
2018-10-19T05:27:52.647Z,9.68
2018-10-19T05:28:53.322Z,9.75
2018-10-19T05:29:50.553Z,9.83
2018-10-19T05:30:43.614Z,9.83
2018-10-19T05:31:37.120Z,9.92
2018-10-19T05:32:33.771Z,9.98
2018-10-19T05:33:29.059Z,10.17
2018-10-19T05:34:25.496Z,10.25
2018-10-19T05:35:17.790Z,10.26
2018-10-19T05:36:11.019Z,10.43
2018-10-19T05:37:03.231Z,10.55
2018-10-19T05:37:55.968Z,10.63
2018-10-19T05:38:50.571Z,10.49
2018-10-19T05:39:43.070Z,10.42
2018-10-19T05:40:35.434Z,10.46
2018-10-19T05:41:27.972Z,10.35
2018-10-19T05:42:21.351Z,10.32
2018-10-19T05:43:13.735Z,10.35
2018-10-19T05:44:06.769Z,10.36
2018-10-19T05:44:59.180Z,10.36
2018-10-19T05:45:51.963Z,10.38
2018-10-19T05:46:44.685Z,10.34
2018-10-19T05:47:39.374Z,10.35
2018-10-19T05:48:34.975Z,10.31
2018-10-19T05:49:27.415Z,10.2
2018-10-19T05:51:21.581Z,10.29
2018-10-19T05:52:17.578Z,10.26
2018-10-19T05:53:20.270Z,10.28
2018-10-19T05:54:18.348Z,10.29
2018-10-19T05:55:17.058Z,10.2
2018-10-19T05:56:10.504Z,10.25
2018-10-19T05:57:09.850Z,10.2
2018-10-19T05:58:14.855Z,10.16
2018-10-19T05:59:16.733Z,10.14
2018-10-19T06:00:09.345Z,10.17
2018-10-19T06:01:01.913Z,9.98
2018-10-19T06:01:59.200Z,10.07
2018-10-19T06:02:56.021Z,10.07
2018-10-19T06:03:49.985Z,10.01
2018-10-19T06:04:45.222Z,10.04
2018-10-19T06:05:39.958Z,10.06
2018-10-19T06:06:31.779Z,10.06
2018-10-19T06:07:25.818Z,10.06
2018-10-19T06:08:18.161Z,10.04
2018-10-19T06:10:46.171Z,10.07
2018-10-19T06:11:38.518Z,10.13
2018-10-19T06:12:31.654Z,10.2
2018-10-19T06:13:24.640Z,10.24
2018-10-19T06:14:17.572Z,10.25
2018-10-19T06:16:02.582Z,10.26
2018-10-19T06:16:56.103Z,10.35
2018-10-19T06:17:48.962Z,10.32
2018-10-19T06:18:41.084Z,10.34
2018-10-19T06:19:33.830Z,10.39
2018-10-19T06:20:26.015Z,10.44
2018-10-19T06:21:19.719Z,10.47
2018-10-19T06:22:13.416Z,10.49
2018-10-19T06:23:08.076Z,10.42
2018-10-19T06:24:06.747Z,10.42
2018-10-19T06:25:00.846Z,10.57
2018-10-19T06:25:55.007Z,10.54
2018-10-19T06:26:50.504Z,10.54
2018-10-19T06:27:44.425Z,10.51
2018-10-19T06:28:37.112Z,10.54
2018-10-19T06:29:29.639Z,10.52
2018-10-19T06:30:22.627Z,10.58
2018-10-19T06:31:16.186Z,10.54
2018-10-19T06:32:10.232Z,10.58
2018-10-19T06:33:03.784Z,10.62
2018-10-19T06:33:56.694Z,10.57
2018-10-19T06:34:48.948Z,10.68
2018-10-19T06:35:41.885Z,10.68
2018-10-19T06:36:35.048Z,10.72
2018-10-19T06:37:26.970Z,10.66
2018-10-19T06:38:19.813Z,10.65
2018-10-19T06:39:12.429Z,10.69
2018-10-19T06:40:07.291Z,10.65
2018-10-19T06:41:03.157Z,10.66
2018-10-19T06:41:59.359Z,10.58
2018-10-19T06:42:52.067Z,10.63
2018-10-19T06:43:48.970Z,10.62
2018-10-19T06:44:45.025Z,10.69
2018-10-19T06:45:40.087Z,10.78
2018-10-19T06:46:35.214Z,10.91
2018-10-19T06:47:27.905Z,10.86
2018-10-19T06:48:21.492Z,10.98
2018-10-19T06:49:14.260Z,10.98
2018-10-19T06:50:06.815Z,11.13
2018-10-19T06:50:59.691Z,11.12
2018-10-19T06:51:52.549Z,11.11
2018-10-19T06:52:45.415Z,11.11
2018-10-19T06:53:42.594Z,11.2
2018-10-19T06:54:34.769Z,11.24
2018-10-19T06:55:27.175Z,11.23
2018-10-19T06:56:20.286Z,11.26
2018-10-19T06:57:12.756Z,11.35
2018-10-19T06:58:04.696Z,11.33
2018-10-19T06:58:58.040Z,11.36
2018-10-19T06:59:50.745Z,11.35
2018-10-19T07:00:43.170Z,11.44
2018-10-19T07:01:35.413Z,11.53
2018-10-19T07:02:26.611Z,11.59
2018-10-19T07:03:14.283Z,11.63
2018-10-19T07:03:54.635Z,11.6
2018-10-19T07:04:35.030Z,11.56
2018-10-19T07:05:15.687Z,11.63
2018-10-19T07:05:56.066Z,11.67
2018-10-19T07:06:37.059Z,11.7
2018-10-19T07:07:17.410Z,11.75
2018-10-19T07:07:58.090Z,11.78
2018-10-19T07:08:38.796Z,11.96
2018-10-19T07:09:19.332Z,12
2018-10-19T07:09:59.944Z,12
2018-10-19T07:10:41.232Z,11.98
2018-10-19T07:11:23.059Z,12.08
2018-10-19T07:12:05.542Z,12.12
2018-10-19T07:12:46.478Z,12.04
2018-10-19T07:13:27.020Z,12.13
2018-10-19T07:14:07.461Z,12.15
2018-10-19T07:14:47.922Z,12.15
2018-10-19T07:15:28.294Z,12.13
2018-10-19T07:16:09.353Z,12.13
2018-10-19T07:16:49.929Z,12.13
2018-10-19T07:17:30.413Z,12.12
2018-10-19T07:18:10.812Z,12.16
2018-10-19T07:18:51.390Z,12.16
2018-10-19T07:19:31.820Z,12.26
2018-10-19T07:20:12.403Z,12.16
2018-10-19T07:20:52.916Z,12.22
2018-10-19T07:21:33.268Z,12.22
2018-10-19T07:22:14.314Z,12.3
2018-10-19T07:22:54.758Z,12.48
2018-10-19T07:23:35.321Z,12.46
2018-10-19T07:24:15.808Z,12.55
2018-10-19T07:24:56.320Z,12.62
2018-10-19T07:25:36.903Z,12.71
2018-10-19T07:26:17.597Z,12.76
2018-10-19T07:26:57.889Z,12.73
2018-10-19T07:27:38.396Z,12.84
2018-10-19T07:28:20.730Z,12.77
2018-10-19T07:29:00.748Z,12.77
2018-10-19T07:29:41.282Z,12.76
2018-10-19T07:30:26.311Z,12.77
2018-10-19T07:31:05.419Z,12.85
2018-10-19T07:31:52.103Z,12.77
2018-10-19T07:32:36.545Z,12.8
2018-10-19T07:33:16.922Z,12.84
2018-10-19T07:34:02.431Z,12.85
2018-10-19T07:34:45.161Z,12.81
2018-10-19T07:35:25.602Z,12.87
2018-10-19T07:36:06.094Z,12.85
2018-10-19T07:36:46.484Z,12.85
2018-10-19T07:37:26.968Z,12.84
2018-10-19T07:38:07.470Z,12.84
2018-10-19T07:38:47.828Z,12.81
2018-10-19T07:39:28.726Z,12.85
2018-10-19T07:40:09.328Z,12.84
2018-10-19T07:40:50.065Z,12.85
2018-10-19T07:41:30.638Z,12.96
2018-10-19T07:42:11.258Z,12.92
2018-10-19T07:42:51.553Z,12.98
2018-10-19T07:43:32.035Z,13.03
2018-10-19T07:44:13.026Z,13.04
2018-10-19T07:44:53.456Z,13.16
2018-10-19T07:45:33.908Z,13.16
2018-10-19T07:46:14.542Z,13.14
2018-10-19T07:46:55.077Z,13.24
2018-10-19T07:47:35.551Z,13.22
2018-10-19T07:48:15.903Z,13.22
2018-10-19T07:48:56.330Z,13.31
2018-10-19T07:49:36.929Z,13.22
2018-10-19T07:50:17.687Z,13.21
2018-10-19T07:50:58.429Z,13.24
2018-10-19T07:51:39.177Z,13.35
2018-10-19T07:52:19.952Z,13.32
2018-10-19T07:53:00.546Z,13.32
2018-10-19T07:53:40.860Z,13.44
2018-10-19T07:54:21.490Z,13.44
2018-10-19T07:55:01.894Z,13.47
2018-10-19T07:55:42.211Z,13.53
2018-10-19T07:56:22.695Z,13.59
2018-10-19T07:57:03.271Z,13.61
2018-10-19T07:57:43.731Z,13.54
2018-10-19T07:58:24.171Z,13.59
2018-10-19T07:59:05.699Z,13.55
2018-10-19T07:59:45.394Z,13.55
2018-10-19T08:00:26.027Z,13.66
2018-10-19T08:01:06.359Z,13.65
2018-10-19T08:01:46.844Z,13.68
2018-10-19T08:02:27.738Z,13.61
2018-10-19T08:03:08.130Z,13.65
2018-10-19T08:03:48.893Z,13.54
2018-10-19T08:04:29.256Z,13.53
2018-10-19T08:05:09.767Z,13.55
2018-10-19T08:05:50.296Z,13.47
2018-10-19T08:06:30.680Z,13.61
2018-10-19T08:07:11.813Z,13.47
2018-10-19T08:07:52.325Z,13.61
2018-10-19T08:08:33.617Z,13.62
2018-10-19T08:09:15.384Z,13.51
2018-10-19T08:09:56.360Z,13.59
2018-10-19T08:11:35.796Z,13.69
2018-10-19T08:12:16.066Z,13.73
2018-10-19T08:12:56.497Z,13.8
2018-10-19T08:13:36.964Z,13.75
2018-10-19T08:14:17.615Z,13.86
2018-10-19T08:14:57.796Z,13.9
2018-10-19T08:15:38.240Z,13.81
2018-10-19T08:16:18.649Z,13.91
2018-10-19T08:16:59.162Z,13.99
2018-10-19T08:17:39.581Z,13.99
2018-10-19T08:18:19.992Z,13.96
2018-10-19T08:19:00.708Z,13.94
2018-10-19T08:19:41.229Z,13.99
2018-10-19T08:20:21.665Z,14.06
2018-10-19T08:21:02.144Z,13.96
2018-10-19T08:21:42.759Z,13.99
2018-10-19T08:22:23.382Z,14.08
2018-10-19T08:23:03.635Z,14.01
2018-10-19T08:23:43.947Z,14.16
2018-10-19T08:24:24.393Z,14.05
2018-10-19T08:25:04.883Z,14.04
2018-10-19T08:25:45.328Z,14.08
2018-10-19T08:26:25.905Z,14.09
2018-10-19T08:27:06.479Z,14.01
2018-10-19T08:27:46.905Z,14.11
2018-10-19T08:28:27.323Z,14.16
2018-10-19T08:29:07.864Z,14.26
2018-10-19T08:31:25.392Z,14.57
2018-10-19T08:32:19.781Z,14.57
2018-10-19T08:33:13.556Z,14.63
2018-10-19T08:34:05.885Z,14.74
2018-10-19T08:35:05.571Z,14.78
2018-10-19T08:35:55.779Z,14.98
2018-10-19T08:36:49.671Z,15.01
2018-10-19T08:37:43.723Z,15.04
2018-10-19T08:38:37.698Z,14.91
2018-10-19T08:39:30.309Z,14.94
2018-10-19T08:40:22.893Z,14.94
2018-10-19T08:41:23.895Z,14.94
2018-10-19T08:42:17.566Z,15
2018-10-19T08:47:24.303Z,15.13
2018-10-19T08:48:19.440Z,15.15
2018-10-19T08:49:12.079Z,15.19
2018-10-19T08:50:07.476Z,15.12
2018-10-19T08:51:07.059Z,15.13
2018-10-19T08:51:59.013Z,15.04
2018-10-19T08:53:07.268Z,15.15
2018-10-19T08:53:59.814Z,15.2
2018-10-19T08:54:55.989Z,15.37
2018-10-19T08:56:11.354Z,15.34
2018-10-19T08:57:14.179Z,15.33
2018-10-19T08:58:08.898Z,15.33
2018-10-19T08:59:01.185Z,15.37
2018-10-19T09:00:01.451Z,15.38
2018-10-19T09:01:03.426Z,15.43
2018-10-19T09:02:06.072Z,15.44
2018-10-19T09:03:03.485Z,15.44
2018-10-19T09:04:05.276Z,15.59
2018-10-19T09:05:05.590Z,15.53
2018-10-19T09:06:02.028Z,15.62
2018-10-19T09:07:06.094Z,15.73
2018-10-19T09:08:04.821Z,15.73
2018-10-19T09:09:08.576Z,15.71
2018-10-19T09:10:06.846Z,15.7
2018-10-19T09:11:02.752Z,15.66
2018-10-19T09:12:00.745Z,15.71
2018-10-19T09:12:44.111Z,15.76
2018-10-19T09:13:24.519Z,15.77
2018-10-19T09:14:04.923Z,15.81
2018-10-19T09:14:45.359Z,15.67
2018-10-19T09:15:25.740Z,15.73
2018-10-19T09:16:06.980Z,15.68
2018-10-19T09:16:47.571Z,15.76
2018-10-19T09:17:32.783Z,15.77
2018-10-19T09:19:16.707Z,15.74
2018-10-19T09:20:09.368Z,15.64
2018-10-19T09:21:01.805Z,15.7
2018-10-19T09:21:58.348Z,15.68
2018-10-19T09:22:52.247Z,15.67
2018-10-19T09:23:46.021Z,15.66
2018-10-19T09:24:39.521Z,15.68
2018-10-19T09:25:33.003Z,15.76
2018-10-19T09:26:27.642Z,15.8
2018-10-19T09:27:21.248Z,15.88
2018-10-19T09:29:38.590Z,16.16
2018-10-19T09:30:34.258Z,16.14
2018-10-19T09:31:34.221Z,16.16
2018-10-19T09:32:27.460Z,16.18
2018-10-19T09:33:24.974Z,16.16
2018-10-19T09:34:20.367Z,16.16
2018-10-19T09:35:14.391Z,16.13
2018-10-19T09:36:08.387Z,16.1
2018-10-19T09:37:00.985Z,16.06
2018-10-19T09:37:54.689Z,16.07
2018-10-19T09:38:47.238Z,16.03
2018-10-19T09:39:43.548Z,16.04
2018-10-19T09:40:38.228Z,15.95
2018-10-19T09:41:31.088Z,15.91
2018-10-19T09:42:24.532Z,15.84
2018-10-19T09:44:35.380Z,15.85
2018-10-19T09:45:27.964Z,15.88
2018-10-19T09:46:22.314Z,15.8
2018-10-19T09:47:16.168Z,15.84
2018-10-19T09:48:08.592Z,15.77
2018-10-19T09:49:02.906Z,15.81
2018-10-19T09:50:01.805Z,15.81
2018-10-19T09:50:58.537Z,15.85
2018-10-19T09:51:55.673Z,15.8
2018-10-19T09:52:50.308Z,15.85
2018-10-19T09:53:45.069Z,15.98
2018-10-19T09:54:39.353Z,15.98
2018-10-19T09:55:32.218Z,16.06
2018-10-19T09:56:27.310Z,15.96
2018-10-19T09:57:21.610Z,15.95
2018-10-19T09:58:14.402Z,15.99
2018-10-19T09:59:09.865Z,16.01
2018-10-19T10:00:02.647Z,15.93
2018-10-19T10:00:59.681Z,16.03
2018-10-19T10:01:55.964Z,15.96
2018-10-19T10:02:52.494Z,16.01
2018-10-19T10:03:49.808Z,16.17
2018-10-19T10:04:42.629Z,16.16
2018-10-19T10:05:35.032Z,16.27
2018-10-19T10:06:29.204Z,16.1
2018-10-19T10:07:21.591Z,16.01
2018-10-19T10:08:14.525Z,16.03
2018-10-19T10:09:06.942Z,16.08
2018-10-19T10:10:00.510Z,16.01
2018-10-19T10:10:54.949Z,16.07
2018-10-19T10:11:48.339Z,16.13
2018-10-19T10:12:40.886Z,16.16
2018-10-19T10:13:34.971Z,16.18
2018-10-19T10:14:30.032Z,16.27
2018-10-19T10:15:24.213Z,16.27
2018-10-19T10:16:16.261Z,16.18
2018-10-19T10:17:11.391Z,16.27
2018-10-19T10:18:11.316Z,16.4
2018-10-19T10:19:07.016Z,16.4
2018-10-19T10:20:01.099Z,16.37
2018-10-19T10:20:53.376Z,16.37
2018-10-19T10:21:46.576Z,16.41
2018-10-19T10:22:41.016Z,16.36
2018-10-19T10:23:37.030Z,16.47
2018-10-19T10:24:28.783Z,16.42
2018-10-19T10:25:21.520Z,16.3
2018-10-19T10:26:21.881Z,16.3
2018-10-19T10:27:13.171Z,16.29
2018-10-19T10:28:06.154Z,16.18
2018-10-19T10:29:02.351Z,16.14
2018-10-19T10:29:55.002Z,16.18
2018-10-19T11:07:02.947Z,16.78
2018-10-19T11:07:48.228Z,16.88
2018-10-19T11:08:28.634Z,16.95
2018-10-19T11:09:09.102Z,17.14
2018-10-19T11:09:50.436Z,17.1
2018-10-19T11:10:30.188Z,17.12
2018-10-19T11:11:10.669Z,17.15
2018-10-19T11:11:51.644Z,17.33
2018-10-19T11:12:32.561Z,17.46
2018-10-19T11:13:13.093Z,17.53
2018-10-19T11:13:54.281Z,17.57
2018-10-19T11:14:34.878Z,17.65
2018-10-19T11:15:15.341Z,17.58
2018-10-19T11:15:55.898Z,17.55
2018-10-19T11:16:36.288Z,17.65
2018-10-19T11:17:16.716Z,17.63
2018-10-19T11:17:58.025Z,17.63
2018-10-19T11:18:38.430Z,17.73
2018-10-19T11:19:19.686Z,17.74
2018-10-19T11:20:00.196Z,17.76
2018-10-19T11:20:41.427Z,17.76
2018-10-19T11:21:22.514Z,17.71
2018-10-19T11:22:02.722Z,17.87
2018-10-19T11:22:43.033Z,18.02
2018-10-19T11:23:23.618Z,18.21
2018-10-19T11:24:04.080Z,18.38
2018-10-19T11:24:44.407Z,18.34
2018-10-19T11:25:24.939Z,18.51
2018-10-19T11:26:05.364Z,18.74
2018-10-19T11:26:45.807Z,19.01
2018-10-19T11:27:26.189Z,19.15
2018-10-19T11:28:06.728Z,19.28
2018-10-19T11:28:47.103Z,19.43
2018-10-19T11:29:27.509Z,19.53
2018-10-19T11:30:07.952Z,19.8
2018-10-19T11:30:48.456Z,19.89
2018-10-19T11:31:28.860Z,20.1
2018-10-19T11:32:09.365Z,20.13
2018-10-19T11:32:50.248Z,20.34
2018-10-19T11:33:30.882Z,20.72
2018-10-19T11:34:13.371Z,20.9
2018-10-19T11:34:53.593Z,21.01
2018-10-19T11:40:17.534Z,22.35
2018-10-19T11:42:08.617Z,21.99
2018-10-19T11:42:48.946Z,21.74
2018-10-19T11:43:29.373Z,21.77
2018-10-19T11:50:01.538Z,22.52
2018-10-19T12:02:49.520Z,24.94
2018-10-19T12:03:30.860Z,25.05
2018-10-19T12:04:17.846Z,25.09
2018-10-19T12:05:07.246Z,25.29
2018-10-19T12:05:58.926Z,25.34
2018-10-19T12:06:40.529Z,25.45
2018-10-19T12:07:20.860Z,25.56
2018-10-19T12:24:09.230Z,26.68
2018-10-19T12:24:50.018Z,26.68
2018-10-19T12:25:30.510Z,26.66
2018-10-19T12:26:27.746Z,26.71
2018-10-19T12:36:59.248Z,26.6
2018-10-19T12:48:23.782Z,26.81
2018-10-19T12:49:04.306Z,26.79
2018-10-19T12:49:44.708Z,26.93
2018-10-19T12:50:25.566Z,26.91
2018-10-19T12:51:06.050Z,26.94
2018-10-19T12:51:46.725Z,27.02
2018-10-19T12:52:27.083Z,26.93
2018-10-19T12:53:07.432Z,26.87
2018-10-19T12:53:47.907Z,26.73
2018-10-19T12:54:28.309Z,26.69
2018-10-19T12:55:09.648Z,26.59
2018-10-19T12:57:49.982Z,26.23
2018-10-19T12:58:30.348Z,26.24
2018-10-19T12:59:10.987Z,26.08
2018-10-19T12:59:52.569Z,26.01
2018-10-19T13:01:00.228Z,25.96
2018-10-19T13:01:41.248Z,25.74
2018-10-19T13:03:26.259Z,25.61
2018-10-19T13:04:07.488Z,25.61
2018-10-19T13:04:48.178Z,25.76
2018-10-19T13:05:36.602Z,25.69
2018-10-19T13:06:17.095Z,25.61
2018-10-19T13:06:57.524Z,25.64
2018-10-19T13:07:38.119Z,25.49
2018-10-19T13:08:18.426Z,25.34
2018-10-19T13:09:07.989Z,24.99
2018-10-19T13:12:31.637Z,24.23
2018-10-19T13:13:12.150Z,23.96
2018-10-19T13:13:54.284Z,23.67
2018-10-19T13:14:39.309Z,23.63
2018-10-19T13:15:19.760Z,23.57
2018-10-19T13:19:43.241Z,23.89
2018-10-19T13:20:36.668Z,24
2018-10-19T13:22:20.525Z,24.15
2018-10-19T13:26:09.900Z,24.19
2018-10-19T13:26:50.625Z,24.23
2018-10-19T13:27:31.431Z,24.23
2018-10-19T13:28:13.816Z,24.26
2018-10-19T13:28:54.401Z,24.16
2018-10-19T13:29:34.732Z,24.26
2018-10-19T13:30:15.419Z,24.23
2018-10-19T13:30:55.742Z,24.21
2018-10-19T13:31:36.705Z,24.3
2018-10-19T13:32:21.180Z,24.27
2018-10-19T13:33:00.025Z,24.31
2018-10-19T13:33:40.404Z,24.34
2018-10-19T13:34:20.899Z,24.31
2018-10-19T13:35:01.413Z,24.36
2018-10-19T13:35:41.915Z,24.31
2018-10-19T13:36:22.254Z,24.36
2018-10-19T13:42:08.003Z,23.84
2018-10-19T13:42:51.263Z,23.74
2018-10-19T13:43:33.793Z,23.81
2018-10-19T13:44:14.583Z,23.64
2018-10-19T13:44:55.017Z,23.57
2018-10-19T13:45:53.954Z,23.64
2018-10-19T13:46:34.271Z,23.69
2018-10-19T13:47:15.018Z,23.75
2018-10-19T13:47:55.440Z,23.72
2018-10-19T13:48:35.848Z,23.75
2018-10-19T13:49:16.255Z,23.63
2018-10-19T13:49:56.618Z,23.78
2018-10-19T13:51:49.554Z,23.74
2018-10-19T13:52:31.022Z,23.69
2018-10-19T13:53:30.469Z,23.56
2018-10-19T13:54:14.226Z,23.62
2018-10-19T13:54:55.916Z,23.52
2018-10-19T14:04:22.450Z,22.09
2018-10-19T14:05:12.775Z,22.08
2018-10-19T14:05:54.539Z,22.04
2018-10-19T14:06:35.143Z,22.02
2018-10-19T14:07:16.815Z,21.81
2018-10-19T14:07:58.342Z,21.89
2018-10-19T14:11:27.229Z,21.93
2018-10-19T14:15:44.673Z,22.26